sensor_id;sensor_type;location;lat;lon;timestamp;P1;durP1;ratioP1;P2;durP2;ratioP2
19016;SDS011;9641;51.494;6.670;2023-01-06T00:00:44;14.03;;;5.93;;
19016;SDS011;9641;51.494;6.670;2023-01-06T00:03:13;12.20;;;5.63;;
19016;SDS011;9641;51.494;6.670;2023-01-06T00:05:40;9.23;;;4.90;;
19016;SDS011;9641;51.494;6.670;2023-01-06T00:08:06;5.97;;;4.60;;
19016;SDS011;9641;51.494;6.670;2023-01-06T00:10:33;9.90;;;4.37;;
19016;SDS011;9641;51.494;6.670;2023-01-06T00:13:01;11.87;;;4.80;;
19016;SDS011;9641;51.494;6.670;2023-01-06T00:15:28;9.57;;;4.93;;
19016;SDS011;9641;51.494;6.670;2023-01-06T00:17:56;8.53;;;4.80;;
19016;SDS011;9641;51.494;6.670;2023-01-06T00:20:24;6.37;;;4.17;;
19016;SDS011;9641;51.494;6.670;2023-01-06T00:22:51;10.53;;;3.90;;
19016;SDS011;9641;51.494;6.670;2023-01-06T00:25:18;10.10;;;4.13;;
19016;SDS011;9641;51.494;6.670;2023-01-06T00:27:45;7.67;;;3.93;;
19016;SDS011;9641;51.494;6.670;2023-01-06T00:30:12;8.63;;;4.40;;
19016;SDS011;9641;51.494;6.670;2023-01-06T00:32:39;12.00;;;3.70;;
19016;SDS011;9641;51.494;6.670;2023-01-06T00:35:06;8.93;;;3.03;;
19016;SDS011;9641;51.494;6.670;2023-01-06T00:37:35;6.30;;;3.20;;
19016;SDS011;9641;51.494;6.670;2023-01-06T00:40:02;4.17;;;3.00;;
19016;SDS011;9641;51.494;6.670;2023-01-06T00:42:29;8.07;;;2.67;;
19016;SDS011;9641;51.494;6.670;2023-01-06T00:44:56;8.67;;;2.50;;
19016;SDS011;9641;51.494;6.670;2023-01-06T00:47:23;3.20;;;2.27;;
19016;SDS011;9641;51.494;6.670;2023-01-06T00:49:50;4.73;;;2.47;;
19016;SDS011;9641;51.494;6.670;2023-01-06T00:52:17;3.20;;;2.00;;
19016;SDS011;9641;51.494;6.670;2023-01-06T00:54:45;10.80;;;2.60;;
19016;SDS011;9641;51.494;6.670;2023-01-06T00:57:13;2.17;;;1.93;;
19016;SDS011;9641;51.494;6.670;2023-01-06T00:59:40;9.30;;;2.30;;
19016;SDS011;9641;51.494;6.670;2023-01-06T01:02:06;4.27;;;2.20;;
19016;SDS011;9641;51.494;6.670;2023-01-06T01:04:33;4.07;;;2.03;;
19016;SDS011;9641;51.494;6.670;2023-01-06T01:07:00;2.30;;;2.03;;
19016;SDS011;9641;51.494;6.670;2023-01-06T01:09:28;4.10;;;1.80;;
19016;SDS011;9641;51.494;6.670;2023-01-06T01:11:57;3.90;;;1.70;;
19016;SDS011;9641;51.494;6.670;2023-01-06T01:14:38;4.20;;;2.07;;
19016;SDS011;9641;51.494;6.670;2023-01-06T01:17:07;5.87;;;1.80;;
19016;SDS011;9641;51.494;6.670;2023-01-06T01:19:35;3.33;;;1.70;;
19016;SDS011;9641;51.494;6.670;2023-01-06T01:22:03;8.27;;;2.13;;
19016;SDS011;9641;51.494;6.670;2023-01-06T01:24:30;3.33;;;1.77;;
19016;SDS011;9641;51.494;6.670;2023-01-06T01:26:59;6.13;;;1.57;;
19016;SDS011;9641;51.494;6.670;2023-01-06T01:29:26;3.27;;;2.27;;
19016;SDS011;9641;51.494;6.670;2023-01-06T01:31:53;2.80;;;1.67;;
19016;SDS011;9641;51.494;6.670;2023-01-06T01:34:20;5.27;;;1.47;;
19016;SDS011;9641;51.494;6.670;2023-01-06T01:36:48;4.97;;;1.70;;
19016;SDS011;9641;51.494;6.670;2023-01-06T01:39:17;4.90;;;2.00;;
19016;SDS011;9641;51.494;6.670;2023-01-06T01:41:49;5.27;;;1.90;;
19016;SDS011;9641;51.494;6.670;2023-01-06T01:47:33;4.50;;;1.80;;
19016;SDS011;9641;51.494;6.670;2023-01-06T01:50:07;3.83;;;1.50;;
19016;SDS011;9641;51.494;6.670;2023-01-06T01:52:42;1.53;;;1.43;;
19016;SDS011;9641;51.494;6.670;2023-01-06T01:55:12;2.93;;;1.80;;
19016;SDS011;9641;51.494;6.670;2023-01-06T01:57:42;5.67;;;1.77;;
19016;SDS011;9641;51.494;6.670;2023-01-06T02:00:13;5.10;;;1.73;;
19016;SDS011;9641;51.494;6.670;2023-01-06T02:02:41;4.87;;;1.67;;
19016;SDS011;9641;51.494;6.670;2023-01-06T02:05:10;4.00;;;1.70;;
19016;SDS011;9641;51.494;6.670;2023-01-06T02:07:39;4.33;;;1.87;;
19016;SDS011;9641;51.494;6.670;2023-01-06T02:10:08;3.87;;;1.80;;
19016;SDS011;9641;51.494;6.670;2023-01-06T02:12:37;5.57;;;1.80;;
19016;SDS011;9641;51.494;6.670;2023-01-06T02:15:12;1.83;;;1.60;;
19016;SDS011;9641;51.494;6.670;2023-01-06T02:17:47;3.73;;;1.70;;
19016;SDS011;9641;51.494;6.670;2023-01-06T02:20:31;3.80;;;1.80;;
19016;SDS011;9641;51.494;6.670;2023-01-06T02:32:14;3.07;;;1.77;;
19016;SDS011;9641;51.494;6.670;2023-01-06T02:34:57;2.33;;;1.33;;
19016;SDS011;9641;51.494;6.670;2023-01-06T02:37:39;6.50;;;1.60;;
19016;SDS011;9641;51.494;6.670;2023-01-06T02:40:20;6.80;;;1.60;;
19016;SDS011;9641;51.494;6.670;2023-01-06T02:43:01;4.40;;;1.90;;
19016;SDS011;9641;51.494;6.670;2023-01-06T02:45:41;3.77;;;1.60;;
19016;SDS011;9641;51.494;6.670;2023-01-06T02:48:22;4.50;;;1.30;;
19016;SDS011;9641;51.494;6.670;2023-01-06T02:50:56;3.03;;;1.27;;
19016;SDS011;9641;51.494;6.670;2023-01-06T02:53:30;3.07;;;1.53;;
19016;SDS011;9641;51.494;6.670;2023-01-06T02:56:03;5.63;;;1.30;;
19016;SDS011;9641;51.494;6.670;2023-01-06T02:58:32;4.80;;;1.63;;
19016;SDS011;9641;51.494;6.670;2023-01-06T03:01:08;4.40;;;1.40;;
19016;SDS011;9641;51.494;6.670;2023-01-06T03:03:40;2.60;;;1.43;;
19016;SDS011;9641;51.494;6.670;2023-01-06T03:06:13;6.00;;;1.60;;
19016;SDS011;9641;51.494;6.670;2023-01-06T03:08:42;5.07;;;1.70;;
19016;SDS011;9641;51.494;6.670;2023-01-06T03:11:12;4.30;;;1.53;;
19016;SDS011;9641;51.494;6.670;2023-01-06T03:13:40;4.03;;;1.57;;
19016;SDS011;9641;51.494;6.670;2023-01-06T03:16:11;2.57;;;1.40;;
19016;SDS011;9641;51.494;6.670;2023-01-06T03:18:40;5.97;;;1.83;;
19016;SDS011;9641;51.494;6.670;2023-01-06T03:21:11;5.30;;;1.50;;
19016;SDS011;9641;51.494;6.670;2023-01-06T03:23:42;3.70;;;1.60;;
19016;SDS011;9641;51.494;6.670;2023-01-06T03:26:10;3.00;;;1.70;;
19016;SDS011;9641;51.494;6.670;2023-01-06T03:28:38;1.93;;;1.33;;
19016;SDS011;9641;51.494;6.670;2023-01-06T03:31:08;4.73;;;1.50;;
19016;SDS011;9641;51.494;6.670;2023-01-06T03:33:43;4.47;;;1.37;;
19016;SDS011;9641;51.494;6.670;2023-01-06T03:36:20;3.73;;;1.63;;
19016;SDS011;9641;51.494;6.670;2023-01-06T03:38:55;6.80;;;1.30;;
19016;SDS011;9641;51.494;6.670;2023-01-06T03:41:29;9.00;;;1.50;;
19016;SDS011;9641;51.494;6.670;2023-01-06T03:44:14;2.97;;;1.20;;
19016;SDS011;9641;51.494;6.670;2023-01-06T03:46:49;3.13;;;1.63;;
19016;SDS011;9641;51.494;6.670;2023-01-06T03:49:23;2.17;;;1.40;;
19016;SDS011;9641;51.494;6.670;2023-01-06T03:51:55;2.87;;;1.43;;
19016;SDS011;9641;51.494;6.670;2023-01-06T03:54:32;3.17;;;1.17;;
19016;SDS011;9641;51.494;6.670;2023-01-06T03:57:05;5.70;;;1.47;;
19016;SDS011;9641;51.494;6.670;2023-01-06T03:59:36;2.50;;;1.20;;
19016;SDS011;9641;51.494;6.670;2023-01-06T04:02:06;3.83;;;1.00;;
19016;SDS011;9641;51.494;6.670;2023-01-06T04:04:35;2.77;;;1.10;;
19016;SDS011;9641;51.494;6.670;2023-01-06T04:07:03;5.27;;;1.20;;
19016;SDS011;9641;51.494;6.670;2023-01-06T04:09:35;3.37;;;1.13;;
19016;SDS011;9641;51.494;6.670;2023-01-06T04:12:03;1.73;;;0.80;;
19016;SDS011;9641;51.494;6.670;2023-01-06T04:14:50;3.53;;;1.13;;
19016;SDS011;9641;51.494;6.670;2023-01-06T04:17:17;1.93;;;0.90;;
19016;SDS011;9641;51.494;6.670;2023-01-06T04:19:46;3.73;;;1.20;;
19016;SDS011;9641;51.494;6.670;2023-01-06T04:22:14;5.57;;;1.10;;
19016;SDS011;9641;51.494;6.670;2023-01-06T04:24:41;5.37;;;1.10;;
19016;SDS011;9641;51.494;6.670;2023-01-06T04:27:08;3.83;;;1.10;;
19016;SDS011;9641;51.494;6.670;2023-01-06T04:29:35;4.37;;;1.17;;
19016;SDS011;9641;51.494;6.670;2023-01-06T04:32:03;1.43;;;0.67;;
19016;SDS011;9641;51.494;6.670;2023-01-06T04:34:30;2.83;;;0.93;;
19016;SDS011;9641;51.494;6.670;2023-01-06T04:36:58;2.70;;;1.03;;
19016;SDS011;9641;51.494;6.670;2023-01-06T04:39:25;3.80;;;1.10;;
19016;SDS011;9641;51.494;6.670;2023-01-06T04:41:52;1.73;;;0.90;;
19016;SDS011;9641;51.494;6.670;2023-01-06T04:44:19;5.40;;;1.00;;
19016;SDS011;9641;51.494;6.670;2023-01-06T04:46:46;1.87;;;1.00;;
19016;SDS011;9641;51.494;6.670;2023-01-06T04:49:13;4.53;;;1.00;;
19016;SDS011;9641;51.494;6.670;2023-01-06T04:51:39;3.37;;;1.40;;
19016;SDS011;9641;51.494;6.670;2023-01-06T04:54:07;1.43;;;1.10;;
19016;SDS011;9641;51.494;6.670;2023-01-06T04:56:34;8.47;;;2.00;;
19016;SDS011;9641;51.494;6.670;2023-01-06T04:59:01;3.80;;;0.97;;
19016;SDS011;9641;51.494;6.670;2023-01-06T05:01:28;5.90;;;1.30;;
19016;SDS011;9641;51.494;6.670;2023-01-06T05:03:55;4.03;;;1.03;;
19016;SDS011;9641;51.494;6.670;2023-01-06T05:06:22;3.77;;;1.00;;
19016;SDS011;9641;51.494;6.670;2023-01-06T05:08:49;4.60;;;1.00;;
19016;SDS011;9641;51.494;6.670;2023-01-06T05:11:17;1.97;;;0.90;;
19016;SDS011;9641;51.494;6.670;2023-01-06T05:13:46;1.17;;;1.07;;
19016;SDS011;9641;51.494;6.670;2023-01-06T05:16:13;5.00;;;1.20;;
19016;SDS011;9641;51.494;6.670;2023-01-06T05:18:42;1.60;;;0.90;;
19016;SDS011;9641;51.494;6.670;2023-01-06T05:21:09;4.83;;;1.10;;
19016;SDS011;9641;51.494;6.670;2023-01-06T05:23:37;1.97;;;1.00;;
19016;SDS011;9641;51.494;6.670;2023-01-06T05:26:04;3.27;;;1.20;;
19016;SDS011;9641;51.494;6.670;2023-01-06T05:28:33;4.33;;;1.07;;
19016;SDS011;9641;51.494;6.670;2023-01-06T05:31:00;2.97;;;1.20;;
19016;SDS011;9641;51.494;6.670;2023-01-06T05:33:28;1.63;;;1.10;;
19016;SDS011;9641;51.494;6.670;2023-01-06T05:35:56;1.90;;;1.40;;
19016;SDS011;9641;51.494;6.670;2023-01-06T05:38:24;6.60;;;1.10;;
19016;SDS011;9641;51.494;6.670;2023-01-06T05:40:51;1.50;;;1.37;;
19016;SDS011;9641;51.494;6.670;2023-01-06T05:43:18;3.60;;;1.23;;
19016;SDS011;9641;51.494;6.670;2023-01-06T05:45:46;7.33;;;1.57;;
19016;SDS011;9641;51.494;6.670;2023-01-06T05:48:14;1.33;;;1.10;;
19016;SDS011;9641;51.494;6.670;2023-01-06T05:50:41;4.07;;;1.40;;
19016;SDS011;9641;51.494;6.670;2023-01-06T05:53:08;1.80;;;1.40;;
19016;SDS011;9641;51.494;6.670;2023-01-06T05:55:34;2.07;;;1.00;;
19016;SDS011;9641;51.494;6.670;2023-01-06T05:58:01;3.43;;;1.00;;
19016;SDS011;9641;51.494;6.670;2023-01-06T06:00:28;1.97;;;1.10;;
19016;SDS011;9641;51.494;6.670;2023-01-06T06:02:56;3.10;;;1.20;;
19016;SDS011;9641;51.494;6.670;2023-01-06T06:05:23;1.20;;;0.90;;
19016;SDS011;9641;51.494;6.670;2023-01-06T06:07:53;1.83;;;1.10;;
19016;SDS011;9641;51.494;6.670;2023-01-06T06:10:20;2.07;;;1.13;;
19016;SDS011;9641;51.494;6.670;2023-01-06T06:12:49;4.17;;;1.00;;
19016;SDS011;9641;51.494;6.670;2023-01-06T06:15:16;2.33;;;1.20;;
19016;SDS011;9641;51.494;6.670;2023-01-06T06:17:43;5.13;;;1.00;;
19016;SDS011;9641;51.494;6.670;2023-01-06T06:20:11;4.23;;;1.13;;
19016;SDS011;9641;51.494;6.670;2023-01-06T06:22:38;5.67;;;1.17;;
19016;SDS011;9641;51.494;6.670;2023-01-06T06:25:05;6.07;;;1.13;;
19016;SDS011;9641;51.494;6.670;2023-01-06T06:27:32;4.27;;;1.43;;
19016;SDS011;9641;51.494;6.670;2023-01-06T06:29:59;1.27;;;1.20;;
19016;SDS011;9641;51.494;6.670;2023-01-06T06:32:28;1.30;;;1.20;;
19016;SDS011;9641;51.494;6.670;2023-01-06T06:34:55;2.03;;;1.23;;
19016;SDS011;9641;51.494;6.670;2023-01-06T06:37:24;2.67;;;0.93;;
19016;SDS011;9641;51.494;6.670;2023-01-06T06:39:51;1.90;;;1.33;;
19016;SDS011;9641;51.494;6.670;2023-01-06T06:42:18;3.70;;;1.03;;
19016;SDS011;9641;51.494;6.670;2023-01-06T06:44:45;2.77;;;1.10;;
19016;SDS011;9641;51.494;6.670;2023-01-06T06:47:11;4.57;;;1.30;;
19016;SDS011;9641;51.494;6.670;2023-01-06T06:49:39;1.10;;;1.00;;
19016;SDS011;9641;51.494;6.670;2023-01-06T06:52:06;2.10;;;1.00;;
19016;SDS011;9641;51.494;6.670;2023-01-06T06:54:35;1.77;;;1.00;;
19016;SDS011;9641;51.494;6.670;2023-01-06T06:57:02;3.40;;;1.20;;
19016;SDS011;9641;51.494;6.670;2023-01-06T06:59:28;2.10;;;1.00;;
19016;SDS011;9641;51.494;6.670;2023-01-06T07:01:55;2.73;;;1.00;;
19016;SDS011;9641;51.494;6.670;2023-01-06T07:04:22;1.83;;;1.00;;
19016;SDS011;9641;51.494;6.670;2023-01-06T07:06:49;2.03;;;1.00;;
19016;SDS011;9641;51.494;6.670;2023-01-06T07:09:16;0.80;;;0.80;;
19016;SDS011;9641;51.494;6.670;2023-01-06T07:11:44;2.53;;;0.97;;
19016;SDS011;9641;51.494;6.670;2023-01-06T07:14:11;4.80;;;0.90;;
19016;SDS011;9641;51.494;6.670;2023-01-06T07:16:38;1.73;;;0.90;;
19016;SDS011;9641;51.494;6.670;2023-01-06T07:19:05;2.73;;;1.00;;
19016;SDS011;9641;51.494;6.670;2023-01-06T07:21:34;3.43;;;1.03;;
19016;SDS011;9641;51.494;6.670;2023-01-06T07:24:02;3.17;;;1.00;;
19016;SDS011;9641;51.494;6.670;2023-01-06T07:26:29;1.10;;;0.90;;
19016;SDS011;9641;51.494;6.670;2023-01-06T07:28:58;1.00;;;0.87;;
19016;SDS011;9641;51.494;6.670;2023-01-06T07:31:25;2.30;;;1.00;;
19016;SDS011;9641;51.494;6.670;2023-01-06T07:33:52;1.17;;;0.77;;
19016;SDS011;9641;51.494;6.670;2023-01-06T07:36:18;2.20;;;0.97;;
19016;SDS011;9641;51.494;6.670;2023-01-06T07:38:45;1.87;;;0.90;;
19016;SDS011;9641;51.494;6.670;2023-01-06T07:41:12;1.77;;;1.00;;
19016;SDS011;9641;51.494;6.670;2023-01-06T07:43:40;1.40;;;1.00;;
19016;SDS011;9641;51.494;6.670;2023-01-06T07:46:09;1.40;;;0.90;;
19016;SDS011;9641;51.494;6.670;2023-01-06T07:48:36;1.77;;;1.00;;
19016;SDS011;9641;51.494;6.670;2023-01-06T07:51:03;1.60;;;1.00;;
19016;SDS011;9641;51.494;6.670;2023-01-06T07:53:31;5.17;;;1.03;;
19016;SDS011;9641;51.494;6.670;2023-01-06T07:55:58;5.77;;;0.93;;
19016;SDS011;9641;51.494;6.670;2023-01-06T07:58:25;2.20;;;0.83;;
19016;SDS011;9641;51.494;6.670;2023-01-06T08:00:52;6.80;;;1.00;;
19016;SDS011;9641;51.494;6.670;2023-01-06T08:03:20;0.70;;;0.70;;
19016;SDS011;9641;51.494;6.670;2023-01-06T08:05:47;3.00;;;0.80;;
19016;SDS011;9641;51.494;6.670;2023-01-06T08:08:15;1.90;;;0.90;;
19016;SDS011;9641;51.494;6.670;2023-01-06T08:10:42;1.83;;;0.90;;
19016;SDS011;9641;51.494;6.670;2023-01-06T08:13:09;2.30;;;0.90;;
19016;SDS011;9641;51.494;6.670;2023-01-06T08:15:36;1.00;;;0.87;;
19016;SDS011;9641;51.494;6.670;2023-01-06T08:18:03;1.30;;;0.80;;
19016;SDS011;9641;51.494;6.670;2023-01-06T08:20:32;2.43;;;0.80;;
19016;SDS011;9641;51.494;6.670;2023-01-06T08:22:59;3.43;;;1.03;;
19016;SDS011;9641;51.494;6.670;2023-01-06T08:25:26;1.10;;;1.10;;
19016;SDS011;9641;51.494;6.670;2023-01-06T08:27:52;1.80;;;1.23;;
19016;SDS011;9641;51.494;6.670;2023-01-06T08:30:19;1.93;;;1.07;;
19016;SDS011;9641;51.494;6.670;2023-01-06T08:32:46;3.90;;;1.10;;
19016;SDS011;9641;51.494;6.670;2023-01-06T08:35:14;5.13;;;1.37;;
19016;SDS011;9641;51.494;6.670;2023-01-06T08:37:43;1.20;;;1.10;;
19016;SDS011;9641;51.494;6.670;2023-01-06T08:40:10;3.20;;;1.87;;
19016;SDS011;9641;51.494;6.670;2023-01-06T08:42:37;1.37;;;1.27;;
19016;SDS011;9641;51.494;6.670;2023-01-06T08:45:05;1.17;;;1.10;;
19016;SDS011;9641;51.494;6.670;2023-01-06T08:47:33;1.77;;;1.47;;
19016;SDS011;9641;51.494;6.670;2023-01-06T08:50:03;1.10;;;1.00;;
19016;SDS011;9641;51.494;6.670;2023-01-06T08:52:30;2.20;;;1.20;;
19016;SDS011;9641;51.494;6.670;2023-01-06T08:54:59;1.90;;;1.10;;
19016;SDS011;9641;51.494;6.670;2023-01-06T08:57:31;1.90;;;1.37;;
19016;SDS011;9641;51.494;6.670;2023-01-06T08:59:59;1.30;;;1.20;;
19016;SDS011;9641;51.494;6.670;2023-01-06T09:02:26;2.17;;;1.40;;
19016;SDS011;9641;51.494;6.670;2023-01-06T09:04:55;1.30;;;1.20;;
19016;SDS011;9641;51.494;6.670;2023-01-06T09:07:22;1.23;;;1.13;;
19016;SDS011;9641;51.494;6.670;2023-01-06T09:09:50;4.77;;;1.23;;
19016;SDS011;9641;51.494;6.670;2023-01-06T09:12:24;2.03;;;1.33;;
19016;SDS011;9641;51.494;6.670;2023-01-06T09:14:51;1.67;;;1.17;;
19016;SDS011;9641;51.494;6.670;2023-01-06T09:17:21;1.70;;;1.20;;
19016;SDS011;9641;51.494;6.670;2023-01-06T09:19:51;1.33;;;1.20;;
19016;SDS011;9641;51.494;6.670;2023-01-06T09:22:18;1.73;;;1.20;;
19016;SDS011;9641;51.494;6.670;2023-01-06T09:24:54;1.20;;;1.10;;
19016;SDS011;9641;51.494;6.670;2023-01-06T09:27:22;3.50;;;1.33;;
19016;SDS011;9641;51.494;6.670;2023-01-06T09:29:50;2.43;;;1.50;;
19016;SDS011;9641;51.494;6.670;2023-01-06T09:32:17;4.70;;;1.33;;
19016;SDS011;9641;51.494;6.670;2023-01-06T09:34:44;1.50;;;1.07;;
19016;SDS011;9641;51.494;6.670;2023-01-06T09:37:11;1.10;;;1.00;;
19016;SDS011;9641;51.494;6.670;2023-01-06T09:39:38;2.37;;;1.20;;
19016;SDS011;9641;51.494;6.670;2023-01-06T09:42:25;2.83;;;1.37;;
19016;SDS011;9641;51.494;6.670;2023-01-06T09:45:02;1.33;;;1.27;;
19016;SDS011;9641;51.494;6.670;2023-01-06T09:47:32;2.93;;;1.60;;
19016;SDS011;9641;51.494;6.670;2023-01-06T09:50:04;1.40;;;1.30;;
19016;SDS011;9641;51.494;6.670;2023-01-06T09:52:36;1.80;;;1.43;;
19016;SDS011;9641;51.494;6.670;2023-01-06T09:55:10;1.63;;;1.53;;
19016;SDS011;9641;51.494;6.670;2023-01-06T09:57:46;1.40;;;1.30;;
19016;SDS011;9641;51.494;6.670;2023-01-06T10:00:21;1.50;;;1.40;;
19016;SDS011;9641;51.494;6.670;2023-01-06T10:02:59;1.23;;;1.10;;
19016;SDS011;9641;51.494;6.670;2023-01-06T10:05:27;1.97;;;1.40;;
19016;SDS011;9641;51.494;6.670;2023-01-06T10:08:02;1.80;;;1.63;;
19016;SDS011;9641;51.494;6.670;2023-01-06T10:10:38;1.97;;;1.40;;
19016;SDS011;9641;51.494;6.670;2023-01-06T10:13:20;1.20;;;1.10;;
19016;SDS011;9641;51.494;6.670;2023-01-06T10:15:57;1.23;;;1.07;;
19016;SDS011;9641;51.494;6.670;2023-01-06T10:18:34;1.47;;;1.30;;
19016;SDS011;9641;51.494;6.670;2023-01-06T10:21:13;1.47;;;1.30;;
19016;SDS011;9641;51.494;6.670;2023-01-06T10:26:56;1.93;;;1.50;;
19016;SDS011;9641;51.494;6.670;2023-01-06T10:29:29;2.17;;;1.10;;
19016;SDS011;9641;51.494;6.670;2023-01-06T10:31:58;1.20;;;1.10;;
19016;SDS011;9641;51.494;6.670;2023-01-06T10:34:28;1.23;;;1.13;;
19016;SDS011;9641;51.494;6.670;2023-01-06T10:36:56;1.70;;;1.20;;
19016;SDS011;9641;51.494;6.670;2023-01-06T10:39:28;1.47;;;1.37;;
19016;SDS011;9641;51.494;6.670;2023-01-06T10:41:59;2.23;;;1.30;;
19016;SDS011;9641;51.494;6.670;2023-01-06T10:44:50;1.50;;;1.40;;
19016;SDS011;9641;51.494;6.670;2023-01-06T10:47:19;1.10;;;1.10;;
19016;SDS011;9641;51.494;6.670;2023-01-06T10:49:50;3.30;;;1.27;;
19016;SDS011;9641;51.494;6.670;2023-01-06T10:52:17;1.57;;;0.90;;
19016;SDS011;9641;51.494;6.670;2023-01-06T10:54:45;0.80;;;0.80;;
19016;SDS011;9641;51.494;6.670;2023-01-06T10:57:16;0.87;;;0.87;;
19016;SDS011;9641;51.494;6.670;2023-01-06T11:00:08;1.67;;;1.00;;
19016;SDS011;9641;51.494;6.670;2023-01-06T11:02:40;1.57;;;1.10;;
19016;SDS011;9641;51.494;6.670;2023-01-06T11:05:11;1.30;;;1.20;;
19016;SDS011;9641;51.494;6.670;2023-01-06T11:07:44;2.13;;;0.90;;
19016;SDS011;9641;51.494;6.670;2023-01-06T11:10:28;2.53;;;1.30;;
19016;SDS011;9641;51.494;6.670;2023-01-06T11:12:57;2.43;;;1.30;;
19016;SDS011;9641;51.494;6.670;2023-01-06T11:15:30;1.10;;;1.10;;
19016;SDS011;9641;51.494;6.670;2023-01-06T11:18:03;1.30;;;1.20;;
19016;SDS011;9641;51.494;6.670;2023-01-06T11:20:31;1.30;;;1.20;;
19016;SDS011;9641;51.494;6.670;2023-01-06T11:23:12;1.20;;;1.10;;
19016;SDS011;9641;51.494;6.670;2023-01-06T11:25:58;1.07;;;1.00;;
19016;SDS011;9641;51.494;6.670;2023-01-06T11:28:27;2.23;;;1.23;;
19016;SDS011;9641;51.494;6.670;2023-01-06T11:30:58;1.30;;;1.20;;
19016;SDS011;9641;51.494;6.670;2023-01-06T11:33:28;2.50;;;1.27;;
19016;SDS011;9641;51.494;6.670;2023-01-06T11:35:57;1.73;;;0.90;;
19016;SDS011;9641;51.494;6.670;2023-01-06T11:38:31;2.87;;;1.23;;
19016;SDS011;9641;51.494;6.670;2023-01-06T11:41:06;1.67;;;1.53;;
19016;SDS011;9641;51.494;6.670;2023-01-06T11:43:34;2.07;;;1.60;;
19016;SDS011;9641;51.494;6.670;2023-01-06T11:46:04;2.37;;;2.07;;
19016;SDS011;9641;51.494;6.670;2023-01-06T11:48:34;2.60;;;1.57;;
19016;SDS011;9641;51.494;6.670;2023-01-06T11:51:05;3.47;;;2.03;;
19016;SDS011;9641;51.494;6.670;2023-01-06T11:53:34;2.80;;;2.13;;
19016;SDS011;9641;51.494;6.670;2023-01-06T11:56:03;2.80;;;1.60;;
19016;SDS011;9641;51.494;6.670;2023-01-06T11:58:37;1.93;;;1.73;;
19016;SDS011;9641;51.494;6.670;2023-01-06T12:01:18;3.73;;;1.50;;
19016;SDS011;9641;51.494;6.670;2023-01-06T12:03:53;1.83;;;1.40;;
19016;SDS011;9641;51.494;6.670;2023-01-06T12:06:27;1.63;;;1.37;;
19016;SDS011;9641;51.494;6.670;2023-01-06T12:08:59;2.50;;;1.60;;
19016;SDS011;9641;51.494;6.670;2023-01-06T12:11:37;3.33;;;1.47;;
19016;SDS011;9641;51.494;6.670;2023-01-06T12:14:10;1.60;;;1.50;;
19016;SDS011;9641;51.494;6.670;2023-01-06T12:16:46;1.50;;;1.30;;
19016;SDS011;9641;51.494;6.670;2023-01-06T12:19:24;2.00;;;1.00;;
19016;SDS011;9641;51.494;6.670;2023-01-06T12:21:57;9.07;;;3.90;;
19016;SDS011;9641;51.494;6.670;2023-01-06T12:24:25;1.37;;;1.00;;
19016;SDS011;9641;51.494;6.670;2023-01-06T12:26:54;1.93;;;1.20;;
19016;SDS011;9641;51.494;6.670;2023-01-06T12:29:22;3.63;;;1.20;;
19016;SDS011;9641;51.494;6.670;2023-01-06T12:31:54;1.80;;;1.27;;
19016;SDS011;9641;51.494;6.670;2023-01-06T12:34:29;2.33;;;1.30;;
19016;SDS011;9641;51.494;6.670;2023-01-06T12:37:05;1.87;;;1.53;;
19016;SDS011;9641;51.494;6.670;2023-01-06T12:39:43;2.50;;;1.43;;
19016;SDS011;9641;51.494;6.670;2023-01-06T12:42:21;1.23;;;1.17;;
19016;SDS011;9641;51.494;6.670;2023-01-06T12:44:54;2.90;;;1.37;;
19016;SDS011;9641;51.494;6.670;2023-01-06T12:47:30;1.57;;;1.40;;
19016;SDS011;9641;51.494;6.670;2023-01-06T12:50:00;1.50;;;1.40;;
19016;SDS011;9641;51.494;6.670;2023-01-06T12:52:32;1.80;;;1.03;;
19016;SDS011;9641;51.494;6.670;2023-01-06T12:55:03;0.80;;;0.80;;
19016;SDS011;9641;51.494;6.670;2023-01-06T12:57:35;2.73;;;1.00;;
19016;SDS011;9641;51.494;6.670;2023-01-06T13:00:26;1.10;;;1.00;;
19016;SDS011;9641;51.494;6.670;2023-01-06T13:03:14;3.40;;;1.40;;
19016;SDS011;9641;51.494;6.670;2023-01-06T13:05:54;3.03;;;1.17;;
19016;SDS011;9641;51.494;6.670;2023-01-06T13:08:39;1.63;;;1.30;;
19016;SDS011;9641;51.494;6.670;2023-01-06T13:11:20;1.10;;;1.00;;
19016;SDS011;9641;51.494;6.670;2023-01-06T13:13:55;1.67;;;0.90;;
19016;SDS011;9641;51.494;6.670;2023-01-06T13:16:30;1.57;;;1.13;;
19016;SDS011;9641;51.494;6.670;2023-01-06T13:19:08;2.93;;;0.80;;
19016;SDS011;9641;51.494;6.670;2023-01-06T13:21:43;0.80;;;0.80;;
19016;SDS011;9641;51.494;6.670;2023-01-06T13:24:23;2.63;;;1.10;;
19016;SDS011;9641;51.494;6.670;2023-01-06T13:27:07;3.63;;;1.90;;
19016;SDS011;9641;51.494;6.670;2023-01-06T13:29:46;3.47;;;1.60;;
19016;SDS011;9641;51.494;6.670;2023-01-06T13:32:31;3.37;;;1.90;;
19016;SDS011;9641;51.494;6.670;2023-01-06T13:35:15;4.13;;;1.93;;
19016;SDS011;9641;51.494;6.670;2023-01-06T13:37:58;4.87;;;1.67;;
19016;SDS011;9641;51.494;6.670;2023-01-06T13:40:30;3.33;;;1.37;;
19016;SDS011;9641;51.494;6.670;2023-01-06T13:43:01;2.30;;;1.10;;
19016;SDS011;9641;51.494;6.670;2023-01-06T13:45:31;1.37;;;1.10;;
19016;SDS011;9641;51.494;6.670;2023-01-06T13:48:01;1.33;;;1.10;;
19016;SDS011;9641;51.494;6.670;2023-01-06T13:50:34;4.23;;;2.17;;
19016;SDS011;9641;51.494;6.670;2023-01-06T13:53:03;5.17;;;3.00;;
19016;SDS011;9641;51.494;6.670;2023-01-06T13:55:31;3.33;;;1.53;;
19016;SDS011;9641;51.494;6.670;2023-01-06T14:01:05;1.67;;;1.27;;
19016;SDS011;9641;51.494;6.670;2023-01-06T14:03:35;3.03;;;1.27;;
19016;SDS011;9641;51.494;6.670;2023-01-06T14:06:04;1.20;;;1.10;;
19016;SDS011;9641;51.494;6.670;2023-01-06T14:08:36;1.63;;;1.33;;
19016;SDS011;9641;51.494;6.670;2023-01-06T14:11:19;5.07;;;2.03;;
19016;SDS011;9641;51.494;6.670;2023-01-06T14:13:52;2.67;;;1.80;;
19016;SDS011;9641;51.494;6.670;2023-01-06T14:16:22;5.87;;;3.83;;
19016;SDS011;9641;51.494;6.670;2023-01-06T14:19:05;2.27;;;1.20;;
19016;SDS011;9641;51.494;6.670;2023-01-06T14:21:35;2.43;;;1.10;;
19016;SDS011;9641;51.494;6.670;2023-01-06T14:24:03;1.37;;;1.10;;
19016;SDS011;9641;51.494;6.670;2023-01-06T14:26:51;1.47;;;1.27;;
19016;SDS011;9641;51.494;6.670;2023-01-06T14:35:18;2.57;;;2.10;;
19016;SDS011;9641;51.494;6.670;2023-01-06T14:37:49;5.33;;;1.30;;
19016;SDS011;9641;51.494;6.670;2023-01-06T14:40:20;2.70;;;2.23;;
19016;SDS011;9641;51.494;6.670;2023-01-06T14:42:49;1.40;;;1.10;;
19016;SDS011;9641;51.494;6.670;2023-01-06T14:45:18;0.80;;;0.80;;
19016;SDS011;9641;51.494;6.670;2023-01-06T14:47:50;1.17;;;1.10;;
19016;SDS011;9641;51.494;6.670;2023-01-06T14:50:21;0.90;;;0.90;;
19016;SDS011;9641;51.494;6.670;2023-01-06T14:52:52;2.33;;;1.30;;
19016;SDS011;9641;51.494;6.670;2023-01-06T14:55:23;1.90;;;0.90;;
19016;SDS011;9641;51.494;6.670;2023-01-06T14:57:51;1.07;;;1.00;;
19016;SDS011;9641;51.494;6.670;2023-01-06T15:00:19;1.00;;;0.90;;
19016;SDS011;9641;51.494;6.670;2023-01-06T15:02:49;1.17;;;1.10;;
19016;SDS011;9641;51.494;6.670;2023-01-06T15:05:20;1.40;;;1.30;;
19016;SDS011;9641;51.494;6.670;2023-01-06T15:07:58;1.57;;;1.40;;
19016;SDS011;9641;51.494;6.670;2023-01-06T15:10:27;2.40;;;2.20;;
19016;SDS011;9641;51.494;6.670;2023-01-06T15:12:57;2.00;;;1.90;;
19016;SDS011;9641;51.494;6.670;2023-01-06T15:15:24;3.17;;;1.70;;
19016;SDS011;9641;51.494;6.670;2023-01-06T15:17:52;2.63;;;1.50;;
19016;SDS011;9641;51.494;6.670;2023-01-06T15:20:21;2.33;;;1.60;;
19016;SDS011;9641;51.494;6.670;2023-01-06T15:22:52;2.57;;;1.53;;
19016;SDS011;9641;51.494;6.670;2023-01-06T15:25:22;1.80;;;1.63;;
19016;SDS011;9641;51.494;6.670;2023-01-06T15:27:56;1.87;;;1.77;;
19016;SDS011;9641;51.494;6.670;2023-01-06T15:30:32;1.80;;;1.70;;
19016;SDS011;9641;51.494;6.670;2023-01-06T15:33:00;2.23;;;2.00;;
19016;SDS011;9641;51.494;6.670;2023-01-06T15:35:29;3.80;;;2.23;;
19016;SDS011;9641;51.494;6.670;2023-01-06T15:37:58;2.23;;;2.13;;
19016;SDS011;9641;51.494;6.670;2023-01-06T15:40:30;4.80;;;2.53;;
19016;SDS011;9641;51.494;6.670;2023-01-06T15:42:57;2.87;;;2.67;;
19016;SDS011;9641;51.494;6.670;2023-01-06T15:45:25;3.97;;;3.50;;